sensor_id;sensor_type;location;lat;lon;timestamp;pressure;altitude;pressure_sealevel;temperature;humidity
40850;BME280;26571;41.610;25.380;2023-04-20T00:01:05;97910.81;;;11.32;100.00
40850;BME280;26571;41.610;25.380;2023-04-20T00:03:31;97909.53;;;11.28;100.00
40850;BME280;26571;41.610;25.380;2023-04-20T00:05:57;97910.94;;;11.24;100.00
40850;BME280;26571;41.610;25.380;2023-04-20T00:08:25;97912.19;;;11.28;100.00
40850;BME280;26571;41.610;25.380;2023-04-20T00:10:50;97891.78;;;11.16;100.00
40850;BME280;26571;41.610;25.380;2023-04-20T00:13:16;97902.13;;;11.17;100.00
40850;BME280;26571;41.610;25.380;2023-04-20T00:15:41;97907.13;;;11.12;100.00
40850;BME280;26571;41.610;25.380;2023-04-20T00:18:07;97903.03;;;11.09;100.00
40850;BME280;26571;41.610;25.380;2023-04-20T00:20:32;97912.03;;;11.15;100.00
40850;BME280;26571;41.610;25.380;2023-04-20T00:22:57;97910.47;;;11.21;100.00
40850;BME280;26571;41.610;25.380;2023-04-20T00:25:23;97908.84;;;11.20;100.00
40850;BME280;26571;41.610;25.380;2023-04-20T00:27:48;97906.75;;;11.15;100.00
40850;BME280;26571;41.610;25.380;2023-04-20T00:30:14;97897.13;;;11.22;100.00
40850;BME280;26571;41.610;25.380;2023-04-20T00:32:39;97892.22;;;11.19;100.00
40850;BME280;26571;41.610;25.380;2023-04-20T00:35:05;97902.31;;;11.16;100.00
40850;BME280;26571;41.610;25.380;2023-04-20T00:37:30;97902.66;;;11.12;100.00
40850;BME280;26571;41.610;25.380;2023-04-20T00:39:56;97872.34;;;11.02;100.00
40850;BME280;26571;41.610;25.380;2023-04-20T00:42:22;97901.09;;;11.18;100.00
40850;BME280;26571;41.610;25.380;2023-04-20T00:44:47;97900.47;;;11.16;100.00
40850;BME280;26571;41.610;25.380;2023-04-20T00:47:14;97897.84;;;11.16;100.00
40850;BME280;26571;41.610;25.380;2023-04-20T00:49:40;97903.47;;;11.13;100.00
40850;BME280;26571;41.610;25.380;2023-04-20T00:52:05;97901.22;;;11.10;100.00
40850;BME280;26571;41.610;25.380;2023-04-20T00:54:31;97899.41;;;11.10;100.00
40850;BME280;26571;41.610;25.380;2023-04-20T00:56:57;97861.72;;;10.80;100.00
40850;BME280;26571;41.610;25.380;2023-04-20T00:59:24;97902.03;;;10.96;100.00
40850;BME280;26571;41.610;25.380;2023-04-20T01:01:49;97895.13;;;10.80;100.00
40850;BME280;26571;41.610;25.380;2023-04-20T01:04:15;97894.41;;;10.71;100.00
40850;BME280;26571;41.610;25.380;2023-04-20T01:06:41;97891.94;;;10.55;100.00
40850;BME280;26571;41.610;25.380;2023-04-20T01:09:06;97886.28;;;10.43;100.00
40850;BME280;26571;41.610;25.380;2023-04-20T01:11:32;97889.53;;;10.30;100.00
40850;BME280;26571;41.610;25.380;2023-04-20T01:13:57;97884.28;;;10.22;100.00
40850;BME280;26571;41.610;25.380;2023-04-20T01:16:23;97878.34;;;10.28;100.00
40850;BME280;26571;41.610;25.380;2023-04-20T01:18:49;97867.47;;;10.31;100.00
40850;BME280;26571;41.610;25.380;2023-04-20T01:21:17;97888.19;;;10.34;100.00
40850;BME280;26571;41.610;25.380;2023-04-20T01:23:44;97878.00;;;10.31;100.00
40850;BME280;26571;41.610;25.380;2023-04-20T01:26:12;97876.00;;;10.33;100.00
40850;BME280;26571;41.610;25.380;2023-04-20T01:28:38;97878.91;;;10.39;100.00
40850;BME280;26571;41.610;25.380;2023-04-20T01:31:05;97880.91;;;10.37;100.00
40850;BME280;26571;41.610;25.380;2023-04-20T01:33:32;97884.88;;;10.32;100.00
40850;BME280;26571;41.610;25.380;2023-04-20T01:35:57;97881.16;;;10.27;100.00
40850;BME280;26571;41.610;25.380;2023-04-20T01:38:24;97877.28;;;10.38;100.00
40850;BME280;26571;41.610;25.380;2023-04-20T01:40:50;97878.09;;;10.38;100.00
40850;BME280;26571;41.610;25.380;2023-04-20T01:43:16;97875.66;;;10.37;100.00
40850;BME280;26571;41.610;25.380;2023-04-20T01:45:42;97875.31;;;10.40;100.00
40850;BME280;26571;41.610;25.380;2023-04-20T01:48:07;97882.53;;;10.38;100.00
40850;BME280;26571;41.610;25.380;2023-04-20T01:50:33;97879.63;;;10.32;100.00
40850;BME280;26571;41.610;25.380;2023-04-20T01:52:58;97867.41;;;10.40;100.00
40850;BME280;26571;41.610;25.380;2023-04-20T01:55:24;97870.94;;;10.47;100.00
40850;BME280;26571;41.610;25.380;2023-04-20T01:57:49;97871.41;;;10.50;100.00
40850;BME280;26571;41.610;25.380;2023-04-20T02:00:15;97866.97;;;10.51;100.00
40850;BME280;26571;41.610;25.380;2023-04-20T02:02:40;97867.31;;;10.48;100.00
40850;BME280;26571;41.610;25.380;2023-04-20T02:05:06;97870.47;;;10.43;100.00
40850;BME280;26571;41.610;25.380;2023-04-20T02:07:32;97869.09;;;10.32;100.00
40850;BME280;26571;41.610;25.380;2023-04-20T02:09:57;97872.13;;;10.29;100.00
40850;BME280;26571;41.610;25.380;2023-04-20T02:12:23;97872.78;;;10.23;100.00
40850;BME280;26571;41.610;25.380;2023-04-20T02:14:48;97875.94;;;10.19;100.00
40850;BME280;26571;41.610;25.380;2023-04-20T02:17:14;97869.22;;;10.16;100.00
40850;BME280;26571;41.610;25.380;2023-04-20T02:19:39;97875.41;;;10.23;100.00
40850;BME280;26571;41.610;25.380;2023-04-20T02:22:04;97862.34;;;10.15;100.00
40850;BME280;26571;41.610;25.380;2023-04-20T02:24:31;97883.97;;;10.25;100.00
40850;BME280;26571;41.610;25.380;2023-04-20T02:26:56;97876.00;;;10.33;100.00
40850;BME280;26571;41.610;25.380;2023-04-20T02:29:23;97889.56;;;10.22;100.00
40850;BME280;26571;41.610;25.380;2023-04-20T02:31:48;97880.09;;;10.13;100.00
40850;BME280;26571;41.610;25.380;2023-04-20T02:34:14;97886.88;;;10.07;100.00
40850;BME280;26571;41.610;25.380;2023-04-20T02:36:39;97886.25;;;10.05;100.00
40850;BME280;26571;41.610;25.380;2023-04-20T02:39:05;97895.00;;;9.98;100.00
40850;BME280;26571;41.610;25.380;2023-04-20T02:41:31;97886.53;;;9.88;100.00
40850;BME280;26571;41.610;25.380;2023-04-20T02:43:56;97889.81;;;9.90;100.00
40850;BME280;26571;41.610;25.380;2023-04-20T02:46:22;97886.19;;;9.91;100.00
40850;BME280;26571;41.610;25.380;2023-04-20T02:48:47;97869.03;;;9.80;100.00
40850;BME280;26571;41.610;25.380;2023-04-20T02:51:12;97888.97;;;9.89;100.00
40850;BME280;26571;41.610;25.380;2023-04-20T02:53:38;97861.06;;;9.65;100.00
40850;BME280;26571;41.610;25.380;2023-04-20T02:56:03;97866.91;;;9.75;100.00
40850;BME280;26571;41.610;25.380;2023-04-20T02:58:29;97845.03;;;9.52;100.00
40850;BME280;26571;41.610;25.380;2023-04-20T03:01:01;97879.75;;;9.70;100.00
40850;BME280;26571;41.610;25.380;2023-04-20T03:03:27;97891.19;;;9.77;100.00
40850;BME280;26571;41.610;25.380;2023-04-20T03:05:54;97885.91;;;9.86;100.00
40850;BME280;26571;41.610;25.380;2023-04-20T03:08:20;97891.53;;;9.74;100.00
40850;BME280;26571;41.610;25.380;2023-04-20T03:10:45;97909.75;;;9.53;100.00
40850;BME280;26571;41.610;25.380;2023-04-20T03:13:11;97895.41;;;9.32;100.00
40850;BME280;26571;41.610;25.380;2023-04-20T03:15:36;97893.59;;;9.33;100.00
40850;BME280;26571;41.610;25.380;2023-04-20T03:18:02;97893.63;;;9.25;100.00
40850;BME280;26571;41.610;25.380;2023-04-20T03:20:28;97860.53;;;9.07;100.00
40850;BME280;26571;41.610;25.380;2023-04-20T03:22:53;97894.28;;;9.27;100.00
40850;BME280;26571;41.610;25.380;2023-04-20T03:25:19;97894.59;;;9.24;100.00
40850;BME280;26571;41.610;25.380;2023-04-20T03:27:45;97895.09;;;9.27;100.00
40850;BME280;26571;41.610;25.380;2023-04-20T03:30:11;97897.03;;;9.33;100.00
40850;BME280;26571;41.610;25.380;2023-04-20T03:32:37;97881.78;;;9.29;100.00
40850;BME280;26571;41.610;25.380;2023-04-20T03:35:06;97877.53;;;9.28;100.00
40850;BME280;26571;41.610;25.380;2023-04-20T03:37:31;97891.13;;;9.31;100.00
40850;BME280;26571;41.610;25.380;2023-04-20T03:39:57;97897.31;;;9.39;100.00
40850;BME280;26571;41.610;25.380;2023-04-20T03:42:22;97904.56;;;9.37;100.00
40850;BME280;26571;41.610;25.380;2023-04-20T03:44:47;97906.53;;;9.35;100.00
40850;BME280;26571;41.610;25.380;2023-04-20T03:47:13;97907.69;;;9.40;100.00
40850;BME280;26571;41.610;25.380;2023-04-20T03:49:38;97905.88;;;9.41;100.00
40850;BME280;26571;41.610;25.380;2023-04-20T03:52:04;97913.84;;;9.55;100.00
40850;BME280;26571;41.610;25.380;2023-04-20T03:54:30;97909.41;;;9.56;100.00
40850;BME280;26571;41.610;25.380;2023-04-20T03:56:55;97912.72;;;9.50;100.00
40850;BME280;26571;41.610;25.380;2023-04-20T03:59:20;97892.94;;;9.31;100.00
40850;BME280;26571;41.610;25.380;2023-04-20T04:01:46;97917.69;;;9.45;100.00
40850;BME280;26571;41.610;25.380;2023-04-20T04:04:11;97916.63;;;9.54;100.00
40850;BME280;26571;41.610;25.380;2023-04-20T04:06:37;97911.91;;;9.80;100.00
40850;BME280;26571;41.610;25.380;2023-04-20T04:09:02;97923.94;;;10.21;100.00
40850;BME280;26571;41.610;25.380;2023-04-20T04:11:28;97921.09;;;10.98;100.00
40850;BME280;26571;41.610;25.380;2023-04-20T04:13:56;97917.56;;;11.71;100.00
40850;BME280;26571;41.610;25.380;2023-04-20T04:16:21;97922.66;;;12.30;95.82
40850;BME280;26571;41.610;25.380;2023-04-20T04:18:47;97926.31;;;12.29;91.88
40850;BME280;26571;41.610;25.380;2023-04-20T04:21:12;97928.34;;;11.91;91.09
40850;BME280;26571;41.610;25.380;2023-04-20T04:23:38;97927.13;;;11.57;92.93
40850;BME280;26571;41.610;25.380;2023-04-20T04:26:03;97918.56;;;11.19;95.86
40850;BME280;26571;41.610;25.380;2023-04-20T04:28:30;97920.47;;;10.96;98.08
40850;BME280;26571;41.610;25.380;2023-04-20T04:30:56;97918.47;;;10.83;99.52
40850;BME280;26571;41.610;25.380;2023-04-20T04:33:22;97917.09;;;10.72;100.00
40850;BME280;26571;41.610;25.380;2023-04-20T04:35:47;97919.84;;;10.41;100.00
40850;BME280;26571;41.610;25.380;2023-04-20T04:38:14;97930.63;;;10.23;100.00
40850;BME280;26571;41.610;25.380;2023-04-20T04:40:39;97921.34;;;10.13;100.00
40850;BME280;26571;41.610;25.380;2023-04-20T04:43:07;97923.44;;;9.94;100.00
40850;BME280;26571;41.610;25.380;2023-04-20T04:45:37;97925.06;;;9.72;100.00
40850;BME280;26571;41.610;25.380;2023-04-20T04:48:04;97938.78;;;9.91;100.00
40850;BME280;26571;41.610;25.380;2023-04-20T04:50:29;97933.41;;;10.07;100.00
40850;BME280;26571;41.610;25.380;2023-04-20T04:52:55;97936.91;;;10.22;100.00
40850;BME280;26571;41.610;25.380;2023-04-20T04:55:20;97931.53;;;10.39;100.00
40850;BME280;26571;41.610;25.380;2023-04-20T04:57:46;97928.22;;;10.45;100.00
40850;BME280;26571;41.610;25.380;2023-04-20T05:00:12;97917.78;;;10.51;100.00
40850;BME280;26571;41.610;25.380;2023-04-20T05:02:38;97941.53;;;10.96;100.00
40850;BME280;26571;41.610;25.380;2023-04-20T05:05:04;97937.16;;;11.47;100.00
40850;BME280;26571;41.610;25.380;2023-04-20T05:07:29;97943.81;;;11.94;100.00
40850;BME280;26571;41.610;25.380;2023-04-20T05:09:55;97891.72;;;11.81;100.00
40850;BME280;26571;41.610;25.380;2023-04-20T05:12:20;97944.19;;;12.12;100.00
40850;BME280;26571;41.610;25.380;2023-04-20T05:14:46;97922.31;;;11.97;100.00
40850;BME280;26571;41.610;25.380;2023-04-20T05:17:11;97941.06;;;12.02;100.00
40850;BME280;26571;41.610;25.380;2023-04-20T05:19:36;97946.16;;;12.04;100.00
40850;BME280;26571;41.610;25.380;2023-04-20T05:22:02;97946.03;;;11.76;100.00
40850;BME280;26571;41.610;25.380;2023-04-20T05:24:27;97943.63;;;11.81;100.00
40850;BME280;26571;41.610;25.380;2023-04-20T05:26:53;97948.19;;;11.72;100.00
40850;BME280;26571;41.610;25.380;2023-04-20T05:29:18;97939.91;;;11.90;100.00
40850;BME280;26571;41.610;25.380;2023-04-20T05:31:44;97941.75;;;11.89;100.00
40850;BME280;26571;41.610;25.380;2023-04-20T05:34:09;97944.53;;;12.24;100.00
40850;BME280;26571;41.610;25.380;2023-04-20T05:36:35;97946.78;;;12.49;98.63
40850;BME280;26571;41.610;25.380;2023-04-20T05:39:01;97957.38;;;12.55;97.11
40850;BME280;26571;41.610;25.380;2023-04-20T05:41:26;97951.66;;;12.52;96.69
40850;BME280;26571;41.610;25.380;2023-04-20T05:43:53;97960.47;;;12.37;98.51
40850;BME280;26571;41.610;25.380;2023-04-20T05:46:18;97949.31;;;12.14;99.79
40850;BME280;26571;41.610;25.380;2023-04-20T05:48:44;97951.19;;;11.99;100.00
40850;BME280;26571;41.610;25.380;2023-04-20T05:51:10;97950.09;;;11.78;100.00
40850;BME280;26571;41.610;25.380;2023-04-20T05:53:35;97941.41;;;11.48;100.00
40850;BME280;26571;41.610;25.380;2023-04-20T05:56:01;97938.72;;;11.42;100.00
40850;BME280;26571;41.610;25.380;2023-04-20T05:58:26;97943.53;;;11.38;100.00
40850;BME280;26571;41.610;25.380;2023-04-20T06:00:52;97942.97;;;11.43;100.00
40850;BME280;26571;41.610;25.380;2023-04-20T06:03:18;97905.75;;;11.31;100.00
40850;BME280;26571;41.610;25.380;2023-04-20T06:05:44;97942.59;;;11.60;100.00
40850;BME280;26571;41.610;25.380;2023-04-20T06:08:10;97942.22;;;11.63;100.00
40850;BME280;26571;41.610;25.380;2023-04-20T06:10:36;97937.56;;;11.80;100.00
40850;BME280;26571;41.610;25.380;2023-04-20T06:13:01;97943.72;;;11.87;100.00
40850;BME280;26571;41.610;25.380;2023-04-20T06:15:26;97933.91;;;11.81;100.00
40850;BME280;26571;41.610;25.380;2023-04-20T06:17:52;97944.63;;;11.95;100.00
40850;BME280;26571;41.610;25.380;2023-04-20T06:20:17;97949.53;;;11.98;100.00
40850;BME280;26571;41.610;25.380;2023-04-20T06:22:44;97948.66;;;12.12;100.00
40850;BME280;26571;41.610;25.380;2023-04-20T06:25:11;97943.41;;;12.33;100.00
40850;BME280;26571;41.610;25.380;2023-04-20T06:27:36;97948.78;;;12.68;100.00
40850;BME280;26571;41.610;25.380;2023-04-20T06:30:02;97922.75;;;12.93;100.00
40850;BME280;26571;41.610;25.380;2023-04-20T06:32:28;97924.19;;;13.37;100.00
40850;BME280;26571;41.610;25.380;2023-04-20T06:34:53;97946.47;;;13.62;94.82
40850;BME280;26571;41.610;25.380;2023-04-20T06:37:19;97945.56;;;13.83;94.09
40850;BME280;26571;41.610;25.380;2023-04-20T06:39:45;97947.66;;;14.21;93.12
40850;BME280;26571;41.610;25.380;2023-04-20T06:42:10;97954.22;;;14.45;89.63
40850;BME280;26571;41.610;25.380;2023-04-20T06:44:36;97954.66;;;14.88;87.72
40850;BME280;26571;41.610;25.380;2023-04-20T06:47:01;97949.31;;;15.15;85.24
40850;BME280;26571;41.610;25.380;2023-04-20T06:49:26;97954.16;;;15.31;84.95
40850;BME280;26571;41.610;25.380;2023-04-20T06:51:52;97948.63;;;15.52;85.04
40850;BME280;26571;41.610;25.380;2023-04-20T06:54:17;97947.38;;;15.55;81.99
40850;BME280;26571;41.610;25.380;2023-04-20T06:56:43;97951.66;;;15.49;80.50
40850;BME280;26571;41.610;25.380;2023-04-20T06:59:08;97951.28;;;15.39;81.88
40850;BME280;26571;41.610;25.380;2023-04-20T07:01:33;97951.31;;;15.26;82.53
40850;BME280;26571;41.610;25.380;2023-04-20T07:03:59;97943.22;;;15.08;82.39
40850;BME280;26571;41.610;25.380;2023-04-20T07:06:24;97944.00;;;15.15;83.73
40850;BME280;26571;41.610;25.380;2023-04-20T07:08:51;97953.63;;;14.89;83.54
40850;BME280;26571;41.610;25.380;2023-04-20T07:11:17;97948.94;;;14.71;84.94
40850;BME280;26571;41.610;25.380;2023-04-20T07:13:42;97949.38;;;14.75;85.80
40850;BME280;26571;41.610;25.380;2023-04-20T07:16:08;97934.50;;;14.87;85.31
40850;BME280;26571;41.610;25.380;2023-04-20T07:18:34;97949.75;;;15.12;84.64
40850;BME280;26571;41.610;25.380;2023-04-20T07:21:00;97947.66;;;15.34;82.93
40850;BME280;26571;41.610;25.380;2023-04-20T07:23:25;97950.72;;;15.89;83.75
40850;BME280;26571;41.610;25.380;2023-04-20T07:25:51;97946.19;;;16.59;81.94
40850;BME280;26571;41.610;25.380;2023-04-20T07:28:16;97943.88;;;16.94;79.28
40850;BME280;26571;41.610;25.380;2023-04-20T07:30:42;97941.56;;;17.41;72.51
40850;BME280;26571;41.610;25.380;2023-04-20T07:33:07;97945.69;;;17.55;67.13
40850;BME280;26571;41.610;25.380;2023-04-20T07:35:33;97917.03;;;17.21;67.75
40850;BME280;26571;41.610;25.380;2023-04-20T07:37:58;97940.22;;;17.32;68.37
40850;BME280;26571;41.610;25.380;2023-04-20T07:40:24;97945.97;;;17.66;72.95
40850;BME280;26571;41.610;25.380;2023-04-20T07:42:49;97936.91;;;18.03;72.59
40850;BME280;26571;41.610;25.380;2023-04-20T07:45:15;97940.69;;;18.26;68.14
40850;BME280;26571;41.610;25.380;2023-04-20T07:47:40;97930.53;;;18.46;65.33
40850;BME280;26571;41.610;25.380;2023-04-20T07:50:09;97930.31;;;18.59;66.31
40850;BME280;26571;41.610;25.380;2023-04-20T07:52:35;97931.44;;;19.05;65.51
40850;BME280;26571;41.610;25.380;2023-04-20T07:55:00;97929.22;;;19.78;66.35
40850;BME280;26571;41.610;25.380;2023-04-20T07:57:27;97928.13;;;20.36;61.16
40850;BME280;26571;41.610;25.380;2023-04-20T07:59:53;97922.13;;;20.74;62.24
40850;BME280;26571;41.610;25.380;2023-04-20T08:02:18;97930.75;;;20.98;56.63
40850;BME280;26571;41.610;25.380;2023-04-20T08:04:44;97929.41;;;21.17;55.00
40850;BME280;26571;41.610;25.380;2023-04-20T08:07:10;97929.66;;;21.33;54.62
40850;BME280;26571;41.610;25.380;2023-04-20T08:09:36;97917.84;;;21.51;57.02
40850;BME280;26571;41.610;25.380;2023-04-20T08:12:02;97919.06;;;21.04;53.13
40850;BME280;26571;41.610;25.380;2023-04-20T08:14:27;97917.00;;;20.56;56.86
40850;BME280;26571;41.610;25.380;2023-04-20T08:16:53;97910.25;;;19.91;54.21
40850;BME280;26571;41.610;25.380;2023-04-20T08:19:18;97888.47;;;19.30;53.52
40850;BME280;26571;41.610;25.380;2023-04-20T08:21:44;97908.53;;;19.33;54.55
40850;BME280;26571;41.610;25.380;2023-04-20T08:24:10;97897.19;;;19.14;56.13
40850;BME280;26571;41.610;25.380;2023-04-20T08:26:37;97908.91;;;19.13;60.44
40850;BME280;26571;41.610;25.380;2023-04-20T08:29:03;97879.09;;;19.04;60.29
40850;BME280;26571;41.610;25.380;2023-04-20T08:31:29;97898.69;;;19.22;61.15
40850;BME280;26571;41.610;25.380;2023-04-20T08:33:54;97907.53;;;18.87;60.48
40850;BME280;26571;41.610;25.380;2023-04-20T08:36:20;97898.09;;;18.49;59.45
40850;BME280;26571;41.610;25.380;2023-04-20T08:38:53;97901.75;;;18.25;56.52
40850;BME280;26571;41.610;25.380;2023-04-20T08:41:19;97893.78;;;17.95;59.01
40850;BME280;26571;41.610;25.380;2023-04-20T08:43:44;97893.84;;;17.58;59.46
40850;BME280;26571;41.610;25.380;2023-04-20T08:46:11;97880.44;;;17.65;56.96
40850;BME280;26571;41.610;25.380;2023-04-20T08:48:38;97888.16;;;17.73;56.39
40850;BME280;26571;41.610;25.380;2023-04-20T08:51:06;97890.53;;;17.81;50.66
40850;BME280;26571;41.610;25.380;2023-04-20T08:53:31;97854.09;;;17.45;49.27
40850;BME280;26571;41.610;25.380;2023-04-20T08:55:57;97885.34;;;17.68;50.19
40850;BME280;26571;41.610;25.380;2023-04-20T08:58:32;97872.13;;;17.61;50.93
40850;BME280;26571;41.610;25.380;2023-04-20T09:00:57;97888.28;;;17.78;51.25
40850;BME280;26571;41.610;25.380;2023-04-20T09:03:39;97846.75;;;17.77;50.23
40850;BME280;26571;41.610;25.380;2023-04-20T09:06:16;97878.59;;;18.25;49.62
40850;BME280;26571;41.610;25.380;2023-04-20T09:08:42;97876.53;;;18.39;50.27
40850;BME280;26571;41.610;25.380;2023-04-20T09:11:24;97874.91;;;18.26;49.98
40850;BME280;26571;41.610;25.380;2023-04-20T09:14:16;97881.75;;;17.92;50.15
40850;BME280;26571;41.610;25.380;2023-04-20T09:16:53;97885.34;;;17.68;51.39
40850;BME280;26571;41.610;25.380;2023-04-20T09:19:25;97877.66;;;17.60;59.05
40850;BME280;26571;41.610;25.380;2023-04-20T09:21:53;97878.56;;;17.53;56.51
40850;BME280;26571;41.610;25.380;2023-04-20T09:24:29;97877.31;;;17.56;54.14
40850;BME280;26571;41.610;25.380;2023-04-20T09:26:55;97879.16;;;17.55;54.59
40850;BME280;26571;41.610;25.380;2023-04-20T09:29:22;97878.78;;;17.52;54.05
40850;BME280;26571;41.610;25.380;2023-04-20T09:31:49;97875.84;;;17.23;55.31
40850;BME280;26571;41.610;25.380;2023-04-20T09:34:15;97868.25;;;17.27;59.45
40850;BME280;26571;41.610;25.380;2023-04-20T09:36:45;97879.75;;;17.39;62.07
40850;BME280;26571;41.610;25.380;2023-04-20T09:39:16;97879.59;;;17.52;63.44
40850;BME280;26571;41.610;25.380;2023-04-20T09:41:42;97879.28;;;17.61;64.42
40850;BME280;26571;41.610;25.380;2023-04-20T09:44:09;97881.34;;;17.58;66.43
40850;BME280;26571;41.610;25.380;2023-04-20T09:46:37;97889.47;;;17.64;67.70
40850;BME280;26571;41.610;25.380;2023-04-20T09:49:05;97890.63;;;17.56;68.80
40850;BME280;26571;41.610;25.380;2023-04-20T09:51:35;97891.56;;;17.43;68.34
40850;BME280;26571;41.610;25.380;2023-04-20T09:54:03;97892.78;;;17.11;69.05
40850;BME280;26571;41.610;25.380;2023-04-20T09:56:29;97882.25;;;16.79;69.70
40850;BME280;26571;41.610;25.380;2023-04-20T09:58:56;97884.63;;;16.62;68.94
40850;BME280;26571;41.610;25.380;2023-04-20T10:01:22;97885.50;;;16.31;66.94
40850;BME280;26571;41.610;25.380;2023-04-20T10:03:48;97870.63;;;15.98;68.10
40850;BME280;26571;41.610;25.380;2023-04-20T10:06:25;97886.97;;;15.95;69.58
40850;BME280;26571;41.610;25.380;2023-04-20T10:08:52;97886.09;;;15.76;71.28
40850;BME280;26571;41.610;25.380;2023-04-20T10:14:13;97869.47;;;15.36;73.77
40850;BME280;26571;41.610;25.380;2023-04-20T10:16:40;97870.78;;;15.20;77.21
40850;BME280;26571;41.610;25.380;2023-04-20T10:19:06;97872.69;;;15.00;74.66
40850;BME280;26571;41.610;25.380;2023-04-20T10:21:32;97869.06;;;14.74;75.35
40850;BME280;26571;41.610;25.380;2023-04-20T10:23:59;97876.41;;;14.46;72.36
40850;BME280;26571;41.610;25.380;2023-04-20T10:26:43;97850.94;;;13.99;73.63
40850;BME280;26571;41.610;25.380;2023-04-20T10:29:31;97883.72;;;13.98;72.26
40850;BME280;26571;41.610;25.380;2023-04-20T10:31:57;97882.50;;;13.93;71.34
40850;BME280;26571;41.610;25.380;2023-04-20T10:34:33;97895.50;;;14.02;74.15
40850;BME280;26571;41.610;25.380;2023-04-20T10:37:09;97900.03;;;14.14;77.49
40850;BME280;26571;41.610;25.380;2023-04-20T10:39:35;97908.97;;;14.20;82.48
40850;BME280;26571;41.610;25.380;2023-04-20T10:42:04;97903.06;;;14.05;86.45
40850;BME280;26571;41.610;25.380;2023-04-20T10:44:30;97923.63;;;14.09;86.53
40850;BME280;26571;41.610;25.380;2023-04-20T10:46:57;97928.28;;;14.01;84.91
40850;BME280;26571;41.610;25.380;2023-04-20T10:49:26;97935.41;;;14.00;83.94
40850;BME280;26571;41.610;25.380;2023-04-20T10:51:53;97940.13;;;14.05;80.30
40850;BME280;26571;41.610;25.380;2023-04-20T10:54:18;97900.78;;;13.88;75.92
40850;BME280;26571;41.610;25.380;2023-04-20T10:56:46;97942.41;;;14.34;78.86
40850;BME280;26571;41.610;25.380;2023-04-20T11:01:39;97942.47;;;14.47;80.47
40850;BME280;26571;41.610;25.380;2023-04-20T11:04:05;97948.53;;;14.61;75.24
40850;BME280;26571;41.610;25.380;2023-04-20T11:06:32;97969.34;;;14.84;74.74
40850;BME280;26571;41.610;25.380;2023-04-20T11:08:57;97939.94;;;15.06;76.69
40850;BME280;26571;41.610;25.380;2023-04-20T11:11:25;97937.88;;;15.21;71.68
40850;BME280;26571;41.610;25.380;2023-04-20T11:14:07;97923.44;;;15.04;70.08
40850;BME280;26571;41.610;25.380;2023-04-20T11:16:32;97913.09;;;14.42;75.72
40850;BME280;26571;41.610;25.380;2023-04-20T11:18:58;97909.28;;;13.77;73.74
40850;BME280;26571;41.610;25.380;2023-04-20T11:21:34;97895.03;;;13.65;85.01
40850;BME280;26571;41.610;25.380;2023-04-20T11:24:01;97900.69;;;13.62;84.51
40850;BME280;26571;41.610;25.380;2023-04-20T11:26:35;97882.69;;;13.24;95.60
40850;BME280;26571;41.610;25.380;2023-04-20T11:29:00;97882.97;;;13.49;99.36
40850;BME280;26571;41.610;25.380;2023-04-20T11:31:25;97881.16;;;13.50;97.90
40850;BME280;26571;41.610;25.380;2023-04-20T11:33:53;97876.06;;;13.55;97.99
40850;BME280;26571;41.610;25.380;2023-04-20T11:36:22;97875.47;;;13.53;99.75
40850;BME280;26571;41.610;25.380;2023-04-20T11:38:48;97872.38;;;13.42;97.03
40850;BME280;26571;41.610;25.380;2023-04-20T11:41:16;97873.22;;;13.50;93.84
40850;BME280;26571;41.610;25.380;2023-04-20T11:43:42;97871.88;;;13.74;95.59
40850;BME280;26571;41.610;25.380;2023-04-20T11:46:18;97874.34;;;13.88;98.82
40850;BME280;26571;41.610;25.380;2023-04-20T11:48:45;97871.31;;;14.05;95.81
40850;BME280;26571;41.610;25.380;2023-04-20T11:51:10;97870.91;;;14.14;95.30
40850;BME280;26571;41.610;25.380;2023-04-20T11:53:36;97861.72;;;14.17;94.33
40850;BME280;26571;41.610;25.380;2023-04-20T11:56:02;97833.84;;;14.21;97.31
40850;BME280;26571;41.610;25.380;2023-04-20T11:58:28;97854.41;;;14.72;91.22
40850;BME280;26571;41.610;25.380;2023-04-20T12:00:53;97861.91;;;14.88;89.82
40850;BME280;26571;41.610;25.380;2023-04-20T12:03:18;97871.06;;;14.92;87.43
40850;BME280;26571;41.610;25.380;2023-04-20T12:05:44;97869.78;;;15.15;89.27
40850;BME280;26571;41.610;25.380;2023-04-20T12:08:10;97868.56;;;15.69;86.14
40850;BME280;26571;41.610;25.380;2023-04-20T12:10:35;97863.00;;;16.09;81.06
40850;BME280;26571;41.610;25.380;2023-04-20T12:13:00;97862.75;;;16.42;75.67
40850;BME280;26571;41.610;25.380;2023-04-20T12:15:26;97867.34;;;16.53;77.18
40850;BME280;26571;41.610;25.380;2023-04-20T12:17:52;97854.19;;;16.83;69.18
40850;BME280;26571;41.610;25.380;2023-04-20T12:20:18;97858.47;;;16.84;65.03
40850;BME280;26571;41.610;25.380;2023-04-20T12:22:43;97859.03;;;16.68;68.50
40850;BME280;26571;41.610;25.380;2023-04-20T12:25:09;97824.13;;;16.39;69.63
40850;BME280;26571;41.610;25.380;2023-04-20T12:27:34;97853.00;;;16.54;70.19
40850;BME280;26571;41.610;25.380;2023-04-20T12:29:59;97853.66;;;16.49;67.87
40850;BME280;26571;41.610;25.380;2023-04-20T12:32:25;97842.56;;;16.34;65.49
40850;BME280;26571;41.610;25.380;2023-04-20T12:34:51;97847.78;;;16.22;63.09
40850;BME280;26571;41.610;25.380;2023-04-20T12:37:16;97839.91;;;16.09;66.83
40850;BME280;26571;41.610;25.380;2023-04-20T12:39:41;97832.78;;;15.78;76.00
40850;BME280;26571;41.610;25.380;2023-04-20T12:42:07;97836.56;;;15.50;77.51
40850;BME280;26571;41.610;25.380;2023-04-20T12:44:32;97829.47;;;15.44;79.28
40850;BME280;26571;41.610;25.380;2023-04-20T12:46:58;97835.81;;;15.43;80.71